KCVS/CVS METAR and TAF weather

Enter ICAO airport designator
Station Type Date Time Source
KCVS METAR 2020/01/28 20:58 UTC NOAA

KCVS 282058Z AUTO 32019G26KT 10SM BKN060 09/M07 A3004 RMK AO2 PK WND 32030/42 SLP164 T00851069 58004 $


Station Type Date Time Source
KCVS Decoded METAR 2020/01/28 20:58 UTC NOAA

Cannon Air Force Base / Clovis, NM, United States (KCVS) 34-23N 103-19W
Jan 28, 2020 - 03:58 PM EST / 2020.01.28 2058 UTC
Wind: from the NW (320 degrees) at 22 MPH (19 KT) gusting to 30 MPH (26 KT):0
Visibility: 10 mile(s):0
Sky conditions: mostly cloudy
Temperature: 47.3 F (8.5 C)
Dew Point: 19.6 F (-6.9 C)
Relative Humidity: 32%
Pressure (altimeter): 30.04 in. Hg (1017 hPa)
Pressure tendency: 0.01 inches (0.4 hPa) lower than three hours ago
ob: KCVS 282058Z AUTO 32019G26KT 10SM BKN060 09/M07 A3004 RMK AO2 PK WND 32030/42 SLP164 T00851069 58004
cycle: 21

Station Type Date Time Source
KCVS TAF 2020/01/28 18:10 UTC NOAA

TAF KCVS 281800Z 2818/2924 36028G40KT 9999 SCT180 520006 QNH3004INS
TEMPO 2818/2820 01030G45KT
BECMG 2821/2822 35015G32KT 9999 SKC QNH3000INS
BECMG 2823/2824 01012G22KT 9999 SKC QNH3001INS
BECMG 2901/2902 35009KT 9999 SKC QNH3005INS
BECMG 2905/2906 25006KT 9999 SKC QNH3003INS
BECMG 2912/2913 16008KT 9999 SKC QNH2994INS TX09/2820Z TNM04/2913Z

Example: see airport list